Terminal Aerodrome Forecast
Issued by NWS

Home | Current Version | Previous Version | Graphics & Text | Print | Product List | Glossary On
Versions: 1 2 3 4 5 6 7 8 9 10 11 12 13 14 15 16 17 18 19 20 21 22 23 24
000
FTUS43 KBIS 300300 AAA
TAFDIK
TAF AMD
KDIK 300315Z 3003/3024 28009KT P6SM SKC
     FM300500 31010KT P6SM SCT250
     FM300800 32010KT P6SM -DZ BKN015
     FM301000 33009KT P6SM OVC008
     FM301800 01009KT P6SM BKN035
     FM302100 02008KT P6SM SCT035=

USA.gov is the U.S. government's official web portal to all federal, state and local government web resources and services.